createdAt,value
2018-08-16T00:02:04.697Z,68.10
2018-08-16T00:04:39.945Z,68.10
2018-08-16T00:07:15.302Z,67.90
2018-08-16T00:09:50.129Z,68.40
2018-08-16T00:12:25.169Z,68.40
2018-08-16T00:15:00.399Z,68.50
2018-08-16T00:17:35.712Z,68.60
2018-08-16T00:20:11.177Z,68.50
2018-08-16T00:22:46.901Z,68.80
2018-08-16T00:25:22.129Z,69.20
2018-08-16T00:27:57.862Z,69.40
2018-08-16T00:30:33.161Z,69.60
2018-08-16T00:33:08.509Z,69.10
2018-08-16T00:35:44.002Z,69.00
2018-08-16T00:38:19.314Z,69.10
2018-08-16T00:40:54.232Z,69.40
2018-08-16T00:43:29.116Z,69.20
2018-08-16T00:46:04.798Z,69.60
2018-08-16T00:48:39.614Z,69.60
2018-08-16T00:51:14.975Z,69.40
2018-08-16T00:53:49.669Z,69.20
2018-08-16T00:56:25.147Z,69.70
2018-08-16T00:58:59.864Z,69.80
2018-08-16T01:01:34.890Z,70.20
2018-08-16T01:04:10.025Z,70.40
2018-08-16T01:06:44.843Z,70.70
2018-08-16T01:09:19.805Z,70.70
2018-08-16T01:11:54.652Z,70.90
2018-08-16T01:14:37.064Z,71.10
2018-08-16T01:17:12.151Z,71.10
2018-08-16T01:19:47.448Z,71.00
2018-08-16T01:22:22.900Z,71.50
2018-08-16T01:24:57.878Z,71.30
2018-08-16T01:27:32.689Z,70.40
2018-08-16T01:30:08.899Z,70.50
2018-08-16T01:32:43.777Z,70.80
2018-08-16T01:35:18.640Z,70.50
2018-08-16T01:37:55.092Z,70.80
2018-08-16T01:40:30.912Z,71.40
2018-08-16T01:43:05.929Z,70.80
2018-08-16T01:45:41.038Z,70.70
2018-08-16T01:48:16.957Z,70.90
2018-08-16T01:50:51.802Z,71.40
2018-08-16T01:53:26.924Z,71.90
2018-08-16T01:56:02.389Z,71.70
2018-08-16T01:58:36.990Z,72.10
2018-08-16T02:01:11.989Z,71.90
2018-08-16T02:03:46.858Z,72.00
2018-08-16T02:06:21.591Z,71.40
2018-08-16T02:08:56.266Z,71.40
2018-08-16T02:11:31.706Z,71.90
2018-08-16T02:14:07.374Z,72.50
2018-08-16T02:16:42.920Z,72.00
2018-08-16T02:19:24.004Z,72.00
2018-08-16T02:21:59.108Z,71.90
2018-08-16T02:24:34.203Z,72.20
2018-08-16T02:27:09.105Z,72.20
2018-08-16T02:29:44.171Z,72.30
2018-08-16T02:32:19.029Z,72.40
2018-08-16T02:34:53.774Z,72.20
2018-08-16T02:37:28.645Z,72.70
2018-08-16T02:40:03.967Z,72.60
2018-08-16T02:42:39.013Z,72.70
2018-08-16T02:45:13.861Z,72.50
2018-08-16T02:47:49.558Z,72.70
2018-08-16T02:50:24.392Z,72.70
2018-08-16T02:52:59.687Z,72.90
2018-08-16T02:55:34.413Z,73.10
2018-08-16T02:58:09.545Z,73.90
2018-08-16T03:00:44.232Z,73.80
2018-08-16T03:03:19.719Z,73.90
2018-08-16T03:05:54.388Z,73.60
2018-08-16T03:08:29.414Z,73.40
2018-08-16T03:11:05.087Z,73.70
2018-08-16T03:13:40.006Z,73.50
2018-08-16T03:16:14.864Z,73.20
2018-08-16T03:18:50.587Z,73.00
2018-08-16T03:21:25.322Z,72.70
2018-08-16T03:24:06.992Z,72.60
2018-08-16T03:26:41.737Z,72.70
2018-08-16T03:29:16.626Z,72.80
2018-08-16T03:31:51.489Z,73.10
2018-08-16T03:34:26.279Z,73.10
2018-08-16T03:37:01.860Z,73.40
2018-08-16T03:39:36.882Z,72.80
2018-08-16T03:42:11.957Z,73.20
2018-08-16T03:44:46.990Z,73.10
2018-08-16T03:47:21.897Z,73.20
2018-08-16T03:49:56.802Z,73.20
2018-08-16T03:52:31.581Z,73.40
2018-08-16T03:55:06.349Z,73.50
2018-08-16T03:57:41.411Z,74.30
2018-08-16T04:00:16.125Z,73.50
2018-08-16T04:02:51.027Z,73.50
2018-08-16T04:05:25.881Z,73.80
2018-08-16T04:08:01.174Z,73.70
2018-08-16T04:10:36.008Z,74.30
2018-08-16T04:13:11.128Z,74.60
2018-08-16T04:15:46.054Z,74.50
2018-08-16T04:18:22.054Z,74.10
2018-08-16T04:20:57.218Z,74.70
2018-08-16T04:23:32.739Z,74.40
2018-08-16T04:26:07.726Z,74.40
2018-08-16T04:28:42.914Z,74.50
2018-08-16T04:31:17.637Z,74.30
2018-08-16T04:33:52.625Z,74.30
2018-08-16T04:36:27.513Z,74.20
2018-08-16T04:39:02.274Z,74.20
2018-08-16T04:41:38.707Z,75.20
2018-08-16T04:44:13.597Z,74.30
2018-08-16T04:46:48.417Z,74.50
2018-08-16T04:49:23.185Z,74.60
2018-08-16T04:51:57.971Z,75.10
2018-08-16T04:54:33.006Z,75.40
2018-08-16T04:57:08.131Z,75.80
2018-08-16T04:59:43.393Z,75.40
2018-08-16T05:02:18.884Z,75.30
2018-08-16T05:04:53.652Z,75.50
2018-08-16T05:07:28.866Z,75.20
2018-08-16T05:10:03.917Z,75.70
2018-08-16T05:12:38.706Z,76.00
2018-08-16T05:15:13.982Z,75.80
2018-08-16T05:17:49.317Z,76.10
2018-08-16T05:20:24.078Z,76.20
2018-08-16T05:22:58.886Z,76.40
2018-08-16T05:25:33.645Z,76.90
2018-08-16T05:28:08.382Z,78.00
2018-08-16T05:30:43.284Z,77.80
2018-08-16T05:33:18.115Z,77.90
2018-08-16T05:35:53.053Z,77.60
2018-08-16T05:38:27.829Z,77.40
2018-08-16T05:41:02.749Z,77.50
2018-08-16T05:43:37.628Z,77.70
2018-08-16T05:46:13.189Z,77.60
2018-08-16T05:48:54.642Z,77.60
2018-08-16T05:51:29.897Z,77.50
2018-08-16T05:54:05.109Z,77.60
2018-08-16T05:56:39.869Z,77.80
2018-08-16T05:59:14.776Z,77.70
2018-08-16T06:01:50.229Z,77.60
2018-08-16T06:04:25.901Z,77.70
2018-08-16T06:07:00.973Z,77.80
2018-08-16T06:09:35.890Z,77.80
2018-08-16T06:12:11.106Z,77.60
2018-08-16T06:14:45.765Z,77.20
2018-08-16T06:17:20.477Z,78.00
2018-08-16T06:19:55.858Z,77.90
2018-08-16T06:22:30.689Z,77.70
2018-08-16T06:25:07.441Z,78.00
2018-08-16T06:27:43.302Z,77.60
2018-08-16T06:30:25.182Z,77.70
2018-08-16T06:32:59.852Z,77.40
2018-08-16T06:35:34.791Z,76.80
2018-08-16T06:38:09.605Z,76.30
2018-08-16T06:40:45.358Z,76.80
2018-08-16T06:43:20.502Z,77.20
2018-08-16T06:45:55.490Z,77.30
2018-08-16T06:48:30.354Z,76.40
2018-08-16T06:51:05.075Z,75.50
2018-08-16T06:53:39.973Z,74.80
2018-08-16T06:56:15.167Z,75.00
2018-08-16T06:58:53.061Z,74.90
2018-08-16T07:01:27.909Z,75.10
2018-08-16T07:04:02.629Z,75.00
2018-08-16T07:06:38.101Z,74.50
2018-08-16T07:09:13.155Z,75.00
2018-08-16T07:11:48.432Z,74.50
2018-08-16T07:14:23.294Z,72.60
2018-08-16T07:16:57.995Z,72.40
2018-08-16T07:19:33.954Z,71.50
2018-08-16T07:22:08.858Z,70.30
2018-08-16T07:24:43.838Z,70.70
2018-08-16T07:27:18.930Z,69.80
2018-08-16T07:29:54.321Z,69.30
2018-08-16T07:32:29.338Z,69.80
2018-08-16T07:35:05.146Z,70.60
2018-08-16T07:37:41.541Z,71.20
2018-08-16T07:40:19.432Z,70.50
2018-08-16T07:42:55.607Z,70.40
2018-08-16T07:45:31.464Z,69.60
2018-08-16T07:48:07.534Z,69.90
2018-08-16T07:50:43.485Z,69.00
2018-08-16T07:53:18.850Z,68.30
2018-08-16T07:55:54.126Z,68.60
2018-08-16T07:58:29.700Z,67.30
2018-08-16T08:01:05.332Z,67.20
2018-08-16T08:03:40.889Z,66.90
2018-08-16T08:06:16.496Z,66.30
2018-08-16T08:08:52.999Z,66.50
2018-08-16T08:11:28.841Z,65.90
2018-08-16T08:14:05.000Z,66.80
2018-08-16T08:16:40.610Z,65.50
2018-08-16T08:19:17.023Z,64.80
2018-08-16T08:21:52.430Z,65.20
2018-08-16T08:24:28.160Z,62.80
2018-08-16T08:27:03.810Z,63.80
2018-08-16T08:29:39.516Z,63.90
2018-08-16T08:32:15.645Z,61.90
2018-08-16T08:34:51.098Z,61.10
2018-08-16T08:37:37.618Z,59.70
2018-08-16T08:40:13.403Z,60.80
2018-08-16T08:42:48.864Z,59.20
2018-08-16T08:45:24.202Z,59.80
2018-08-16T08:47:59.506Z,59.00
2018-08-16T08:50:35.135Z,57.40
2018-08-16T08:53:22.345Z,57.20
2018-08-16T08:56:08.936Z,56.50
2018-08-16T08:58:49.862Z,57.10
2018-08-16T09:01:26.183Z,56.00
2018-08-16T09:04:01.482Z,55.30
2018-08-16T09:06:36.940Z,55.00
2018-08-16T09:09:12.790Z,54.40
2018-08-16T09:11:59.640Z,51.40
2018-08-16T09:14:46.860Z,51.00
2018-08-16T09:17:25.030Z,49.20
2018-08-16T09:20:00.383Z,50.50
2018-08-16T09:22:36.345Z,49.40
2018-08-16T09:25:12.263Z,48.50
2018-08-16T09:27:48.260Z,46.50
2018-08-16T09:30:41.909Z,46.80
2018-08-16T09:33:28.302Z,46.30
2018-08-16T09:36:03.338Z,44.50
2018-08-16T09:38:38.629Z,45.70
2018-08-16T09:41:14.165Z,45.50
2018-08-16T09:43:49.778Z,44.80
2018-08-16T09:47:18.806Z,43.30
2018-08-16T09:49:54.559Z,42.60
2018-08-16T09:52:29.856Z,43.60
2018-08-16T09:55:05.647Z,42.80
2018-08-16T09:57:40.665Z,42.30
2018-08-16T10:00:15.698Z,41.90
2018-08-16T10:02:50.941Z,39.80
2018-08-16T10:05:26.325Z,40.20
2018-08-16T10:08:02.061Z,40.10
2018-08-16T10:10:37.294Z,37.30
2018-08-16T10:13:13.165Z,37.60
2018-08-16T10:15:48.392Z,38.50
2018-08-16T10:18:23.842Z,41.00
2018-08-16T10:21:00.267Z,38.70
2018-08-16T10:23:35.537Z,38.10
2018-08-16T10:26:11.821Z,38.40
2018-08-16T10:28:46.892Z,36.90
2018-08-16T10:31:22.625Z,35.50
2018-08-16T10:33:58.578Z,35.30
2018-08-16T10:36:33.851Z,33.10
2018-08-16T10:39:12.933Z,35.00
2018-08-16T10:41:48.879Z,34.90
2018-08-16T10:44:24.678Z,34.60
2018-08-16T10:47:01.630Z,32.90
2018-08-16T10:49:37.480Z,33.80
2018-08-16T10:52:12.569Z,34.20
2018-08-16T10:54:49.101Z,31.50
2018-08-16T10:57:25.221Z,31.70
2018-08-16T11:00:00.559Z,30.50
2018-08-16T11:02:36.053Z,31.50
2018-08-16T11:05:11.233Z,31.20
2018-08-16T11:07:46.318Z,30.00
2018-08-16T11:10:21.338Z,31.70
2018-08-16T11:12:57.048Z,31.40
2018-08-16T11:15:32.229Z,30.80
2018-08-16T11:18:08.238Z,30.60
2018-08-16T11:20:43.393Z,30.00
2018-08-16T11:23:18.762Z,30.50
2018-08-16T11:25:54.569Z,31.10
2018-08-16T11:28:29.562Z,30.70
2018-08-16T11:31:05.011Z,29.10
2018-08-16T11:33:40.058Z,28.80
2018-08-16T11:36:15.869Z,29.40
2018-08-16T11:38:50.870Z,28.20
2018-08-16T11:41:26.039Z,28.20
2018-08-16T11:44:01.081Z,28.70
2018-08-16T11:46:38.225Z,28.20
2018-08-16T11:49:14.622Z,29.10
2018-08-16T11:51:50.123Z,28.40
2018-08-16T11:54:25.118Z,29.00
2018-08-16T11:57:00.203Z,28.80
2018-08-16T11:59:35.897Z,28.60
2018-08-16T12:02:11.346Z,28.80
2018-08-16T12:04:46.600Z,29.50
2018-08-16T12:07:21.986Z,29.10
2018-08-16T12:09:57.200Z,27.20
2018-08-16T12:12:32.601Z,27.80
2018-08-16T12:15:08.794Z,27.30
2018-08-16T12:17:44.377Z,27.00
2018-08-16T12:20:19.499Z,27.30
2018-08-16T12:22:54.670Z,27.30
2018-08-16T12:25:30.277Z,28.30
2018-08-16T12:28:07.117Z,26.80
2018-08-16T12:30:42.120Z,26.80
2018-08-16T12:33:17.969Z,26.20
2018-08-16T12:35:53.261Z,26.40
2018-08-16T12:38:28.545Z,26.00
2018-08-16T12:41:04.525Z,26.60
2018-08-16T12:43:39.678Z,24.70
2018-08-16T12:46:14.887Z,25.60
2018-08-16T12:48:50.037Z,25.70
2018-08-16T12:51:25.937Z,26.90
2018-08-16T12:54:00.975Z,25.80
2018-08-16T12:56:36.331Z,24.90
2018-08-16T12:59:11.879Z,25.00
2018-08-16T13:01:47.102Z,24.60
2018-08-16T13:04:22.926Z,25.70
2018-08-16T13:06:58.021Z,26.80
2018-08-16T13:09:33.090Z,26.40
2018-08-16T13:12:08.861Z,26.20
2018-08-16T13:14:44.015Z,27.00
2018-08-16T13:17:18.971Z,28.80
2018-08-16T13:19:53.949Z,29.40
2018-08-16T13:22:29.620Z,30.40
2018-08-16T13:25:04.722Z,30.90
2018-08-16T13:27:39.855Z,30.30
2018-08-16T13:30:14.929Z,29.80
2018-08-16T13:32:50.731Z,27.50
2018-08-16T13:35:26.065Z,27.80
2018-08-16T13:38:01.269Z,25.70
2018-08-16T13:40:36.472Z,25.60
2018-08-16T13:43:12.037Z,26.00
2018-08-16T13:45:47.214Z,27.60
2018-08-16T13:48:22.197Z,28.40
2018-08-16T13:50:57.589Z,29.40
2018-08-16T13:53:33.180Z,30.00
2018-08-16T13:56:08.291Z,28.40
2018-08-16T13:58:43.570Z,29.00
2018-08-16T14:01:19.167Z,30.80
2018-08-16T14:03:54.842Z,29.10
2018-08-16T14:06:29.746Z,28.00
2018-08-16T14:09:07.801Z,26.60
2018-08-16T14:11:42.867Z,26.90
2018-08-16T14:14:18.012Z,27.40
2018-08-16T14:16:53.121Z,28.20
2018-08-16T14:19:28.958Z,28.60
2018-08-16T14:22:08.007Z,27.50
2018-08-16T14:24:42.930Z,29.00
2018-08-16T14:27:18.090Z,28.80
2018-08-16T14:29:53.389Z,29.20
2018-08-16T14:32:28.561Z,30.70
2018-08-16T14:35:03.785Z,29.20
2018-08-16T14:37:38.809Z,28.10
2018-08-16T14:40:13.893Z,27.60
2018-08-16T14:42:49.426Z,27.20
2018-08-16T14:45:24.564Z,27.30
2018-08-16T14:48:03.850Z,28.00
2018-08-16T14:50:40.409Z,29.00
2018-08-16T14:53:15.442Z,30.50
2018-08-16T14:55:50.595Z,30.50
2018-08-16T14:58:26.321Z,29.30
2018-08-16T15:01:01.713Z,28.70
2018-08-16T15:03:36.871Z,29.10
2018-08-16T15:06:12.743Z,26.50
2018-08-16T15:08:48.599Z,25.60
2018-08-16T15:11:23.997Z,25.90
2018-08-16T15:13:59.007Z,26.50
2018-08-16T15:16:34.851Z,28.20
2018-08-16T15:19:10.219Z,27.40
2018-08-16T15:21:45.389Z,27.40
2018-08-16T15:24:21.246Z,27.20
2018-08-16T15:26:56.301Z,28.20
2018-08-16T15:29:32.691Z,28.50
2018-08-16T15:32:07.917Z,26.50
2018-08-16T15:34:43.254Z,27.30
2018-08-16T15:37:18.800Z,27.10
2018-08-16T15:39:54.101Z,26.40
2018-08-16T15:42:29.226Z,26.50
2018-08-16T15:45:04.794Z,26.90
2018-08-16T15:47:39.851Z,26.60
2018-08-16T15:50:15.095Z,27.20
2018-08-16T15:52:51.019Z,27.10
2018-08-16T15:55:26.006Z,28.10
2018-08-16T15:58:01.150Z,27.20
2018-08-16T16:00:37.460Z,27.10
2018-08-16T16:03:12.424Z,26.30
2018-08-16T16:05:48.585Z,26.80
2018-08-16T16:08:24.153Z,26.00
2018-08-16T16:10:59.490Z,26.70
2018-08-16T16:13:37.595Z,26.90
2018-08-16T16:16:12.719Z,27.00
2018-08-16T16:18:47.950Z,27.60
2018-08-16T16:21:23.126Z,26.70
2018-08-16T16:23:58.728Z,27.30
2018-08-16T16:26:34.234Z,28.10
2018-08-16T16:29:09.268Z,27.70
2018-08-16T16:31:44.566Z,27.80
2018-08-16T16:34:19.818Z,28.30
2018-08-16T16:36:54.951Z,27.90
2018-08-16T16:39:30.298Z,27.50
2018-08-16T16:42:06.204Z,28.00
2018-08-16T16:44:41.650Z,28.40
2018-08-16T16:47:16.662Z,28.90
2018-08-16T16:49:52.659Z,28.70
2018-08-16T16:52:28.333Z,29.70
2018-08-16T16:55:03.505Z,29.00
2018-08-16T16:57:39.234Z,29.80
2018-08-16T17:00:14.627Z,29.50
2018-08-16T17:02:49.978Z,29.40
2018-08-16T17:05:25.798Z,29.50
2018-08-16T17:08:01.892Z,29.20
2018-08-16T17:10:38.053Z,29.00
2018-08-16T17:13:13.726Z,28.90
2018-08-16T17:15:49.118Z,29.30
2018-08-16T17:18:24.166Z,29.50
2018-08-16T17:20:59.971Z,29.60
2018-08-16T17:23:35.867Z,30.10
2018-08-16T17:26:10.950Z,30.00
2018-08-16T17:28:46.103Z,29.70
2018-08-16T17:31:21.743Z,30.20
2018-08-16T17:33:57.113Z,30.40
2018-08-16T17:36:32.578Z,31.30
2018-08-16T17:39:08.524Z,31.10
2018-08-16T17:41:43.569Z,32.20
2018-08-16T17:44:18.829Z,32.00
2018-08-16T17:46:53.953Z,32.00
2018-08-16T17:49:30.036Z,33.20
2018-08-16T17:52:05.549Z,34.00
2018-08-16T17:54:40.986Z,33.30
2018-08-16T17:57:16.561Z,33.40
2018-08-16T17:59:52.009Z,35.00
2018-08-16T18:02:27.982Z,36.20
2018-08-16T18:05:04.443Z,35.90
2018-08-16T18:07:40.229Z,36.30
2018-08-16T18:10:15.870Z,38.00
2018-08-16T18:12:51.942Z,37.50
2018-08-16T18:15:27.557Z,37.80
2018-08-16T18:18:02.804Z,39.80
2018-08-16T18:20:38.474Z,40.30
2018-08-16T18:23:14.670Z,38.90
2018-08-16T18:25:50.063Z,38.70
2018-08-16T18:28:25.362Z,39.20
2018-08-16T18:31:00.992Z,40.10
2018-08-16T18:33:36.507Z,40.80
2018-08-16T18:36:12.482Z,41.40
2018-08-16T18:38:47.937Z,43.20
2018-08-16T18:41:24.041Z,43.30
2018-08-16T18:44:00.061Z,43.10
2018-08-16T18:46:35.970Z,43.30
2018-08-16T18:49:11.529Z,43.70
2018-08-16T18:51:47.217Z,43.80
2018-08-16T18:54:22.871Z,45.40
2018-08-16T18:56:58.325Z,45.30
2018-08-16T18:59:34.793Z,45.40
2018-08-16T19:02:10.419Z,46.60
2018-08-16T19:04:46.738Z,47.10
2018-08-16T19:07:22.239Z,47.50
2018-08-16T19:09:58.255Z,48.20
2018-08-16T19:12:34.243Z,47.70
2018-08-16T19:15:09.783Z,47.00
2018-08-16T19:17:45.194Z,47.00
2018-08-16T19:20:21.082Z,46.90
2018-08-16T19:22:56.689Z,47.80
2018-08-16T19:25:33.092Z,48.90
2018-08-16T19:28:09.185Z,49.30
2018-08-16T19:30:44.906Z,49.60
2018-08-16T19:33:20.453Z,50.00
2018-08-16T19:35:56.056Z,50.30
2018-08-16T19:38:31.849Z,50.30
2018-08-16T19:41:07.190Z,50.80
2018-08-16T19:43:42.715Z,50.70
2018-08-16T19:46:18.650Z,50.50
2018-08-16T19:48:54.480Z,50.50
2018-08-16T19:51:30.269Z,50.40
2018-08-16T19:54:05.597Z,51.00
2018-08-16T19:56:41.148Z,51.80
2018-08-16T19:59:16.643Z,52.20
2018-08-16T20:01:52.806Z,53.00
2018-08-16T20:04:28.467Z,52.80
2018-08-16T20:07:04.470Z,52.40
2018-08-16T20:09:40.197Z,52.70
2018-08-16T20:12:15.939Z,53.40
2018-08-16T20:14:52.107Z,53.40
2018-08-16T20:17:27.738Z,53.10
2018-08-16T20:20:03.172Z,52.90
2018-08-16T20:22:38.878Z,52.80
2018-08-16T20:25:14.854Z,52.60
2018-08-16T20:27:50.434Z,52.90
2018-08-16T20:30:26.075Z,53.30
2018-08-16T20:33:01.362Z,53.30
2018-08-16T20:35:37.155Z,53.40
2018-08-16T20:38:12.676Z,53.60
2018-08-16T20:40:48.234Z,54.70
2018-08-16T20:43:23.836Z,54.40
2018-08-16T20:46:00.017Z,54.40
2018-08-16T20:48:35.404Z,54.00
2018-08-16T20:51:10.881Z,54.10
2018-08-16T20:53:46.293Z,54.20
2018-08-16T20:56:21.985Z,53.90
2018-08-16T20:58:58.190Z,54.40
2018-08-16T21:01:33.407Z,54.70
2018-08-16T21:04:09.147Z,55.00
2018-08-16T21:06:44.965Z,55.30
2018-08-16T21:09:20.249Z,55.30
2018-08-16T21:11:55.973Z,55.30
2018-08-16T21:14:31.369Z,55.70
2018-08-16T21:17:07.177Z,55.70
2018-08-16T21:19:42.576Z,56.20
2018-08-16T21:22:17.883Z,56.40
2018-08-16T21:24:53.107Z,56.30
2018-08-16T21:27:28.575Z,56.30
2018-08-16T21:30:04.624Z,56.30
2018-08-16T21:32:39.874Z,56.30
2018-08-16T21:35:15.594Z,56.30
2018-08-16T21:37:51.346Z,56.50
2018-08-16T21:40:27.033Z,56.50
2018-08-16T21:43:02.563Z,56.50
2018-08-16T21:45:38.278Z,56.60
2018-08-16T21:48:13.563Z,56.60
2018-08-16T21:50:49.070Z,56.40
2018-08-16T21:53:24.694Z,56.30
2018-08-16T21:56:00.444Z,56.50
2018-08-16T21:58:35.807Z,56.60
2018-08-16T22:01:11.502Z,56.40
2018-08-16T22:03:46.730Z,56.60
2018-08-16T22:06:33.652Z,56.50
2018-08-16T22:09:12.008Z,56.70
2018-08-16T22:11:47.334Z,57.20
2018-08-16T22:14:23.035Z,57.20
2018-08-16T22:16:58.543Z,57.10
2018-08-16T22:19:33.947Z,56.40
2018-08-16T22:22:09.574Z,56.10
2018-08-16T22:24:45.686Z,56.80
2018-08-16T22:27:21.018Z,56.20
2018-08-16T22:29:56.483Z,55.80
2018-08-16T22:32:32.199Z,55.60
2018-08-16T22:35:07.767Z,56.30
2018-08-16T22:37:43.234Z,56.20
2018-08-16T22:40:18.654Z,56.40
2018-08-16T22:42:54.159Z,57.00
2018-08-16T22:45:30.040Z,57.20
2018-08-16T22:48:05.907Z,57.50
2018-08-16T22:50:41.270Z,57.70
2018-08-16T22:53:17.597Z,57.50
2018-08-16T22:55:53.005Z,57.20
2018-08-16T22:58:29.071Z,57.00
2018-08-16T23:01:04.690Z,56.70
2018-08-16T23:03:41.043Z,56.40
2018-08-16T23:06:16.578Z,57.00
2018-08-16T23:08:54.885Z,57.00
2018-08-16T23:11:30.398Z,56.70
2018-08-16T23:14:06.482Z,56.10
2018-08-16T23:16:41.928Z,55.70
2018-08-16T23:19:18.606Z,55.40
2018-08-16T23:21:54.783Z,55.20
2018-08-16T23:24:30.592Z,55.00
2018-08-16T23:27:05.908Z,54.90
2018-08-16T23:29:41.473Z,54.70
2018-08-16T23:32:17.170Z,54.70
2018-08-16T23:34:52.453Z,54.60
2018-08-16T23:37:28.210Z,55.10
2018-08-16T23:40:04.346Z,54.50
2018-08-16T23:42:40.199Z,54.40
2018-08-16T23:45:16.299Z,54.30
2018-08-16T23:48:02.910Z,54.20
2018-08-16T23:50:38.560Z,54.80
2018-08-16T23:53:14.098Z,54.50
2018-08-16T23:55:49.652Z,54.50
2018-08-16T23:58:25.286Z,54.50
